sensor_id;sensor_type;location;lat;lon;timestamp;temperature;humidity
24087;DHT22;22893;50.572;7.234;2022-10-16T00:42:35;21.80;83.30
24087;DHT22;22893;50.572;7.234;2022-10-16T00:45:03;21.80;83.30
24087;DHT22;22893;50.572;7.234;2022-10-16T00:47:33;21.70;83.20
24087;DHT22;22893;50.572;7.234;2022-10-16T00:50:16;21.70;83.20
24087;DHT22;22893;50.572;7.234;2022-10-16T00:52:46;21.70;83.40
24087;DHT22;22893;50.572;7.234;2022-10-16T00:55:15;21.70;83.20
24087;DHT22;22893;50.572;7.234;2022-10-16T00:57:43;21.70;83.20
24087;DHT22;22893;50.572;7.234;2022-10-16T01:00:15;21.70;82.00
24087;DHT22;22893;50.572;7.234;2022-10-16T01:02:42;21.70;81.90
24087;DHT22;22893;50.572;7.234;2022-10-16T01:05:09;21.70;82.10
24087;DHT22;22893;50.572;7.234;2022-10-16T01:08:00;21.70;82.50
24087;DHT22;22893;50.572;7.234;2022-10-16T01:10:46;21.70;82.40
24087;DHT22;22893;50.572;7.234;2022-10-16T01:13:21;21.70;82.50
24087;DHT22;22893;50.572;7.234;2022-10-16T01:18:39;21.70;82.50
24087;DHT22;22893;50.572;7.234;2022-10-16T01:21:10;21.70;82.80
24087;DHT22;22893;50.572;7.234;2022-10-16T01:29:25;21.70;82.70
24087;DHT22;22893;50.572;7.234;2022-10-16T01:32:01;21.70;82.70
24087;DHT22;22893;50.572;7.234;2022-10-16T01:34:32;21.70;82.70
24087;DHT22;22893;50.572;7.234;2022-10-16T01:37:11;21.70;82.60
24087;DHT22;22893;50.572;7.234;2022-10-16T01:39:40;21.70;82.70
24087;DHT22;22893;50.572;7.234;2022-10-16T01:42:18;21.70;82.70
24087;DHT22;22893;50.572;7.234;2022-10-16T01:44:47;21.70;82.80
24087;DHT22;22893;50.572;7.234;2022-10-16T01:47:16;21.70;82.70
24087;DHT22;22893;50.572;7.234;2022-10-16T01:49:45;21.80;82.70
24087;DHT22;22893;50.572;7.234;2022-10-16T01:52:15;21.70;82.80
24087;DHT22;22893;50.572;7.234;2022-10-16T01:54:45;21.70;82.50
24087;DHT22;22893;50.572;7.234;2022-10-16T01:57:16;21.70;82.70
24087;DHT22;22893;50.572;7.234;2022-10-16T01:59:47;21.70;82.70
24087;DHT22;22893;50.572;7.234;2022-10-16T02:02:17;21.70;82.70
24087;DHT22;22893;50.572;7.234;2022-10-16T02:04:49;21.70;82.70
24087;DHT22;22893;50.572;7.234;2022-10-16T02:07:16;21.70;82.70
24087;DHT22;22893;50.572;7.234;2022-10-16T02:09:44;21.70;82.70
24087;DHT22;22893;50.572;7.234;2022-10-16T02:12:29;21.70;82.60
24087;DHT22;22893;50.572;7.234;2022-10-16T02:14:57;21.70;82.70
24087;DHT22;22893;50.572;7.234;2022-10-16T02:17:26;21.60;82.60
24087;DHT22;22893;50.572;7.234;2022-10-16T02:19:55;21.70;82.70
24087;DHT22;22893;50.572;7.234;2022-10-16T02:22:40;21.60;82.70
24087;DHT22;22893;50.572;7.234;2022-10-16T02:25:17;21.70;82.70
24087;DHT22;22893;50.572;7.234;2022-10-16T02:28:03;21.70;82.70
24087;DHT22;22893;50.572;7.234;2022-10-16T02:33:03;21.70;82.60
24087;DHT22;22893;50.572;7.234;2022-10-16T02:35:32;21.60;82.50
24087;DHT22;22893;50.572;7.234;2022-10-16T02:38:01;21.70;82.70
24087;DHT22;22893;50.572;7.234;2022-10-16T02:40:29;21.70;82.70
24087;DHT22;22893;50.572;7.234;2022-10-16T02:42:57;21.60;82.60
24087;DHT22;22893;50.572;7.234;2022-10-16T02:45:25;21.60;82.60
24087;DHT22;22893;50.572;7.234;2022-10-16T02:47:52;21.60;82.70
24087;DHT22;22893;50.572;7.234;2022-10-16T20:11:13;22.30;84.60
24087;DHT22;22893;50.572;7.234;2022-10-16T20:13:41;22.40;84.40
24087;DHT22;22893;50.572;7.234;2022-10-16T20:16:09;22.40;84.40
24087;DHT22;22893;50.572;7.234;2022-10-16T20:18:39;22.40;84.10
24087;DHT22;22893;50.572;7.234;2022-10-16T20:21:11;22.40;84.00
24087;DHT22;22893;50.572;7.234;2022-10-16T20:23:39;22.40;84.20
24087;DHT22;22893;50.572;7.234;2022-10-16T20:26:07;22.40;84.20
24087;DHT22;22893;50.572;7.234;2022-10-16T20:28:39;22.40;84.10
24087;DHT22;22893;50.572;7.234;2022-10-16T20:31:13;22.40;84.20
24087;DHT22;22893;50.572;7.234;2022-10-16T20:33:37;22.40;84.00
24087;DHT22;22893;50.572;7.234;2022-10-16T20:36:11;22.40;84.10
24087;DHT22;22893;50.572;7.234;2022-10-16T20:38:39;22.40;84.10
24087;DHT22;22893;50.572;7.234;2022-10-16T20:41:07;22.40;84.00
24087;DHT22;22893;50.572;7.234;2022-10-16T20:43:38;22.40;84.00
24087;DHT22;22893;50.572;7.234;2022-10-16T20:46:07;22.40;83.90
24087;DHT22;22893;50.572;7.234;2022-10-16T20:48:35;22.40;84.30
24087;DHT22;22893;50.572;7.234;2022-10-16T20:51:17;22.40;83.70
24087;DHT22;22893;50.572;7.234;2022-10-16T20:53:42;22.40;83.70
24087;DHT22;22893;50.572;7.234;2022-10-16T20:56:11;22.40;84.30
24087;DHT22;22893;50.572;7.234;2022-10-16T20:58:41;22.30;84.00
24087;DHT22;22893;50.572;7.234;2022-10-16T21:01:12;22.30;83.70
24087;DHT22;22893;50.572;7.234;2022-10-16T21:03:39;22.40;83.70
24087;DHT22;22893;50.572;7.234;2022-10-16T21:06:08;22.40;83.70
24087;DHT22;22893;50.572;7.234;2022-10-16T21:08:38;22.40;83.70
24087;DHT22;22893;50.572;7.234;2022-10-16T21:13:46;22.40;83.60
24087;DHT22;22893;50.572;7.234;2022-10-16T21:16:14;22.40;83.70
24087;DHT22;22893;50.572;7.234;2022-10-16T21:18:41;22.40;83.60
24087;DHT22;22893;50.572;7.234;2022-10-16T21:21:12;22.40;83.60
24087;DHT22;22893;50.572;7.234;2022-10-16T21:23:39;22.40;83.50
24087;DHT22;22893;50.572;7.234;2022-10-16T21:26:06;22.40;83.50
24087;DHT22;22893;50.572;7.234;2022-10-16T21:28:34;22.40;83.40
24087;DHT22;22893;50.572;7.234;2022-10-16T21:31:10;22.40;83.40
24087;DHT22;22893;50.572;7.234;2022-10-16T21:33:38;22.40;83.40
24087;DHT22;22893;50.572;7.234;2022-10-16T21:36:22;22.40;83.20
24087;DHT22;22893;50.572;7.234;2022-10-16T21:38:50;22.40;83.60
24087;DHT22;22893;50.572;7.234;2022-10-16T21:41:26;22.20;84.40
24087;DHT22;22893;50.572;7.234;2022-10-16T21:43:55;22.20;84.30
24087;DHT22;22893;50.572;7.234;2022-10-16T21:46:25;22.20;84.50
24087;DHT22;22893;50.572;7.234;2022-10-16T21:48:58;22.30;84.30
24087;DHT22;22893;50.572;7.234;2022-10-16T21:51:27;22.20;84.00
24087;DHT22;22893;50.572;7.234;2022-10-16T21:53:55;22.20;84.10
24087;DHT22;22893;50.572;7.234;2022-10-16T21:56:23;22.30;84.10
24087;DHT22;22893;50.572;7.234;2022-10-16T21:58:51;22.20;84.10
24087;DHT22;22893;50.572;7.234;2022-10-16T22:01:21;22.20;84.00
24087;DHT22;22893;50.572;7.234;2022-10-16T22:03:49;22.30;84.40
24087;DHT22;22893;50.572;7.234;2022-10-16T22:06:19;22.30;84.20
24087;DHT22;22893;50.572;7.234;2022-10-16T22:08:51;22.20;84.30
24087;DHT22;22893;50.572;7.234;2022-10-16T22:11:20;22.20;84.30
24087;DHT22;22893;50.572;7.234;2022-10-16T22:13:49;22.20;84.20
24087;DHT22;22893;50.572;7.234;2022-10-16T22:16:21;22.20;84.30
24087;DHT22;22893;50.572;7.234;2022-10-16T22:18:51;22.20;84.30
24087;DHT22;22893;50.572;7.234;2022-10-16T22:21:19;22.20;84.30
24087;DHT22;22893;50.572;7.234;2022-10-16T22:23:46;22.20;84.30
24087;DHT22;22893;50.572;7.234;2022-10-16T22:26:14;22.20;84.30
24087;DHT22;22893;50.572;7.234;2022-10-16T22:28:42;22.20;84.20
24087;DHT22;22893;50.572;7.234;2022-10-16T22:31:11;22.20;84.30
24087;DHT22;22893;50.572;7.234;2022-10-16T22:33:40;22.20;84.30
24087;DHT22;22893;50.572;7.234;2022-10-16T22:36:10;22.20;84.20
24087;DHT22;22893;50.572;7.234;2022-10-16T22:38:38;22.20;84.20
24087;DHT22;22893;50.572;7.234;2022-10-16T22:41:09;22.20;84.30
24087;DHT22;22893;50.572;7.234;2022-10-16T22:43:39;22.20;84.30
24087;DHT22;22893;50.572;7.234;2022-10-16T22:46:11;22.20;84.20
24087;DHT22;22893;50.572;7.234;2022-10-16T22:48:39;22.10;84.20
24087;DHT22;22893;50.572;7.234;2022-10-16T22:51:07;22.20;84.30
24087;DHT22;22893;50.572;7.234;2022-10-16T22:53:35;22.10;84.40
24087;DHT22;22893;50.572;7.234;2022-10-16T22:56:03;22.10;84.20
24087;DHT22;22893;50.572;7.234;2022-10-16T22:58:31;22.20;84.30
24087;DHT22;22893;50.572;7.234;2022-10-16T23:00:59;22.20;84.30
24087;DHT22;22893;50.572;7.234;2022-10-16T23:03:26;22.20;84.30
24087;DHT22;22893;50.572;7.234;2022-10-16T23:05:54;22.20;84.30
24087;DHT22;22893;50.572;7.234;2022-10-16T23:08:21;22.20;84.70
24087;DHT22;22893;50.572;7.234;2022-10-16T23:10:49;22.20;84.20
24087;DHT22;22893;50.572;7.234;2022-10-16T23:13:16;22.20;84.10
24087;DHT22;22893;50.572;7.234;2022-10-16T23:15:44;22.10;84.20
24087;DHT22;22893;50.572;7.234;2022-10-16T23:18:12;22.20;84.20
24087;DHT22;22893;50.572;7.234;2022-10-16T23:20:40;22.10;84.20
24087;DHT22;22893;50.572;7.234;2022-10-16T23:23:08;22.20;84.20
24087;DHT22;22893;50.572;7.234;2022-10-16T23:25:47;22.10;84.10
24087;DHT22;22893;50.572;7.234;2022-10-16T23:28:14;22.10;84.10
24087;DHT22;22893;50.572;7.234;2022-10-16T23:30:42;22.10;84.10
24087;DHT22;22893;50.572;7.234;2022-10-16T23:33:09;22.10;84.20
24087;DHT22;22893;50.572;7.234;2022-10-16T23:35:39;22.10;84.10
24087;DHT22;22893;50.572;7.234;2022-10-16T23:38:06;22.10;84.10
24087;DHT22;22893;50.572;7.234;2022-10-16T23:40:34;22.10;84.10
24087;DHT22;22893;50.572;7.234;2022-10-16T23:43:01;22.10;84.10
24087;DHT22;22893;50.572;7.234;2022-10-16T23:45:29;22.10;84.10
24087;DHT22;22893;50.572;7.234;2022-10-16T23:47:56;22.10;84.10
24087;DHT22;22893;50.572;7.234;2022-10-16T23:50:24;22.10;84.90
24087;DHT22;22893;50.572;7.234;2022-10-16T23:52:53;22.10;84.10
24087;DHT22;22893;50.572;7.234;2022-10-16T23:55:20;22.10;84.10
24087;DHT22;22893;50.572;7.234;2022-10-16T23:57:48;22.10;84.00
